createdAt,value
2023-04-17T10:42:01.214Z,99.90
2023-04-17T10:47:07.447Z,99.90
2023-04-17T10:52:28.984Z,99.90
2023-04-17T10:57:53.746Z,99.90
2023-04-17T11:03:02.274Z,99.90
2023-04-17T11:08:15.609Z,99.90
2023-04-17T11:13:19.334Z,99.90
2023-04-17T11:18:21.621Z,99.90
2023-04-17T11:23:30.071Z,99.90
2023-04-17T11:28:31.813Z,99.90
2023-04-17T11:33:37.571Z,99.90
2023-04-17T11:38:55.352Z,99.90
2023-04-17T11:43:59.106Z,99.90
2023-04-17T11:49:12.076Z,99.90
2023-04-17T11:54:27.674Z,99.90
2023-04-17T11:59:37.873Z,99.90
2023-04-17T12:04:40.824Z,99.90
2023-04-17T12:10:01.107Z,99.90
2023-04-17T12:15:03.526Z,99.90
2023-04-17T13:26:52.889Z,99.90
2023-04-17T13:31:54.649Z,99.90
2023-04-17T13:36:56.299Z,99.90
2023-04-17T13:41:58.972Z,99.90
2023-04-17T13:47:03.660Z,99.90
2023-04-17T13:52:05.773Z,99.90
2023-04-17T13:57:08.175Z,99.90
2023-04-17T14:02:09.950Z,99.90
2023-04-17T14:07:12.826Z,99.90
2023-04-17T14:12:19.756Z,99.90
2023-04-17T14:17:21.472Z,99.70
2023-04-17T14:22:23.470Z,99.50
2023-04-17T14:27:25.255Z,99.60
2023-04-17T14:32:27.138Z,99.00
2023-04-17T14:37:30.007Z,99.90
2023-04-17T14:42:38.062Z,99.90
2023-04-17T14:47:49.078Z,99.60
2023-04-17T14:52:51.842Z,97.80
2023-04-17T14:57:58.045Z,97.50
2023-04-17T15:03:01.045Z,97.30
2023-04-17T15:08:03.479Z,97.70
2023-04-17T15:13:14.835Z,98.30
2023-04-17T15:18:16.731Z,98.10
2023-04-17T15:23:18.923Z,97.70
2023-04-17T15:28:22.731Z,99.90
2023-04-17T15:33:24.530Z,99.90
2023-04-17T15:38:32.683Z,99.90
2023-04-17T15:43:35.852Z,99.90
2023-04-17T15:48:37.645Z,99.90
2023-04-17T15:53:39.346Z,99.90
2023-04-17T15:58:46.282Z,99.90
2023-04-17T16:04:08.378Z,99.90
2023-04-17T16:09:10.515Z,99.90
2023-04-17T16:14:12.341Z,99.90
2023-04-17T16:19:14.202Z,99.90
2023-04-17T16:24:16.317Z,99.90
2023-04-17T16:29:18.017Z,99.90
2023-04-17T16:34:25.746Z,99.90
2023-04-17T16:39:27.482Z,99.90
2023-04-17T16:44:29.296Z,99.90
2023-04-17T16:49:31.396Z,99.90
2023-04-17T16:54:33.171Z,99.90
2023-04-17T16:59:35.929Z,99.90
2023-04-17T17:04:38.740Z,99.20
2023-04-17T17:09:42.527Z,99.20
2023-04-17T17:14:46.771Z,99.90
2023-04-17T17:19:49.608Z,99.50
2023-04-17T17:24:54.064Z,96.40
2023-04-17T17:29:59.009Z,96.70
2023-04-17T17:35:02.043Z,97.30
2023-04-17T17:40:04.425Z,96.70
2023-04-17T17:45:07.437Z,95.40
2023-04-17T17:50:09.358Z,96.30
2023-04-17T17:55:15.496Z,96.00
2023-04-17T18:00:17.478Z,97.60
2023-04-17T18:05:19.266Z,96.70
2023-04-17T18:10:21.179Z,98.30
2023-04-17T18:15:22.881Z,98.90
2023-04-17T18:20:24.510Z,99.90
2023-04-17T18:25:26.054Z,99.90
2023-04-17T18:30:27.585Z,99.90
2023-04-17T18:35:29.137Z,99.90
2023-04-17T18:40:30.899Z,99.90
2023-04-17T18:45:35.583Z,99.90
2023-04-17T18:50:38.708Z,99.90
2023-04-17T18:55:40.504Z,99.90
2023-04-17T19:00:42.259Z,99.90
2023-04-17T19:05:44.112Z,99.90
2023-04-17T19:10:47.929Z,99.90
2023-04-17T19:15:50.759Z,99.90
2023-04-17T19:20:53.362Z,99.90
2023-04-17T19:25:55.561Z,99.90
2023-04-17T19:31:00.754Z,99.90
2023-04-17T19:36:03.245Z,99.90
2023-04-17T19:41:15.048Z,99.90
2023-04-17T19:46:18.103Z,99.90
2023-04-17T19:51:19.913Z,99.90
2023-04-17T19:56:21.633Z,99.90
2023-04-17T20:01:23.291Z,99.90
2023-04-17T20:06:25.373Z,99.90
2023-04-17T20:11:26.965Z,99.90
2023-04-17T20:16:29.744Z,99.90
2023-04-17T20:21:31.371Z,99.90
2023-04-17T20:26:33.450Z,99.90
2023-04-17T20:31:37.155Z,99.90
2023-04-17T20:36:38.943Z,99.90
2023-04-17T20:41:41.869Z,99.90
2023-04-17T20:46:43.468Z,99.90
2023-04-17T20:51:46.301Z,99.90
2023-04-17T20:56:47.904Z,99.90
2023-04-17T21:01:51.653Z,99.90
2023-04-17T21:06:53.358Z,99.90
2023-04-17T21:11:55.312Z,99.90
2023-04-17T21:16:59.212Z,99.90
2023-04-17T21:22:00.872Z,99.90
2023-04-17T21:27:04.578Z,99.90
2023-04-17T21:32:06.601Z,99.90
2023-04-17T21:37:08.423Z,99.90
2023-04-17T21:42:11.031Z,99.90
2023-04-17T21:47:14.503Z,99.90
2023-04-17T21:52:16.741Z,99.90
2023-04-17T21:57:18.322Z,99.90
2023-04-17T22:02:19.986Z,99.90
2023-04-17T22:07:22.705Z,99.90
2023-04-17T22:12:24.337Z,99.90
2023-04-17T22:17:26.142Z,99.90
2023-04-17T22:22:27.885Z,99.90
2023-04-17T22:27:29.558Z,99.90
2023-04-17T22:32:33.419Z,99.90
2023-04-17T22:37:36.108Z,99.90
2023-04-17T22:42:37.871Z,99.90
2023-04-17T22:47:39.625Z,99.90
2023-04-17T22:52:41.388Z,99.90
2023-04-17T22:57:43.043Z,99.90
2023-04-17T23:02:44.829Z,99.90
2023-04-17T23:07:46.506Z,99.90
2023-04-17T23:12:48.088Z,99.90
2023-04-17T23:17:49.724Z,99.90
2023-04-17T23:22:51.611Z,99.90
2023-04-17T23:27:54.240Z,99.90
2023-04-17T23:32:55.923Z,99.90
2023-04-17T23:37:57.610Z,99.90
2023-04-17T23:42:59.254Z,99.90
2023-04-17T23:48:01.095Z,99.90
2023-04-17T23:53:02.734Z,99.90
2023-04-17T23:58:04.422Z,99.90
